sensor_id;sensor_type;location;lat;lon;timestamp;temperature;humidity
35668;DHT22;22158;59.280;17.806;2023-02-01T05:01:59;-1.50;99.90
35668;DHT22;22158;59.280;17.806;2023-02-01T05:04:25;-1.50;99.90
35668;DHT22;22158;59.280;17.806;2023-02-01T05:06:51;-1.40;99.90
35668;DHT22;22158;59.280;17.806;2023-02-01T05:09:16;-1.40;99.90
35668;DHT22;22158;59.280;17.806;2023-02-01T05:11:42;-1.40;99.90
35668;DHT22;22158;59.280;17.806;2023-02-01T05:14:26;-1.40;99.90
35668;DHT22;22158;59.280;17.806;2023-02-01T05:16:52;-1.40;99.90
35668;DHT22;22158;59.280;17.806;2023-02-01T05:19:18;-1.30;99.90
35668;DHT22;22158;59.280;17.806;2023-02-01T05:21:43;-1.30;99.90
35668;DHT22;22158;59.280;17.806;2023-02-01T05:24:09;-1.30;99.90
35668;DHT22;22158;59.280;17.806;2023-02-01T05:26:36;-1.30;99.90
35668;DHT22;22158;59.280;17.806;2023-02-01T05:29:02;-1.30;99.90
35668;DHT22;22158;59.280;17.806;2023-02-01T05:31:28;-1.30;99.90
35668;DHT22;22158;59.280;17.806;2023-02-01T05:33:54;-1.30;99.90
35668;DHT22;22158;59.280;17.806;2023-02-01T05:36:19;-1.30;99.90
35668;DHT22;22158;59.280;17.806;2023-02-01T05:38:45;-1.30;99.90
35668;DHT22;22158;59.280;17.806;2023-02-01T05:41:11;-1.30;99.90
35668;DHT22;22158;59.280;17.806;2023-02-01T05:43:36;-1.30;99.90
35668;DHT22;22158;59.280;17.806;2023-02-01T05:46:02;-1.30;99.90
35668;DHT22;22158;59.280;17.806;2023-02-01T05:48:28;-1.30;99.90
35668;DHT22;22158;59.280;17.806;2023-02-01T05:50:54;-1.30;99.90
35668;DHT22;22158;59.280;17.806;2023-02-01T05:53:19;-1.30;99.90
35668;DHT22;22158;59.280;17.806;2023-02-01T05:55:47;-1.30;99.90
35668;DHT22;22158;59.280;17.806;2023-02-01T05:58:13;-1.20;99.90
35668;DHT22;22158;59.280;17.806;2023-02-01T06:00:39;-1.20;99.90
35668;DHT22;22158;59.280;17.806;2023-02-01T06:03:05;-1.20;99.90
35668;DHT22;22158;59.280;17.806;2023-02-01T06:05:31;-1.20;99.90
35668;DHT22;22158;59.280;17.806;2023-02-01T06:07:57;-1.20;99.90
35668;DHT22;22158;59.280;17.806;2023-02-01T06:10:23;-1.20;99.90
35668;DHT22;22158;59.280;17.806;2023-02-01T06:12:49;-1.20;99.90
35668;DHT22;22158;59.280;17.806;2023-02-01T06:15:15;-1.20;99.90
35668;DHT22;22158;59.280;17.806;2023-02-01T06:17:43;-1.10;99.90
35668;DHT22;22158;59.280;17.806;2023-02-01T06:20:10;-1.10;99.90
35668;DHT22;22158;59.280;17.806;2023-02-01T06:22:36;-1.10;99.90
35668;DHT22;22158;59.280;17.806;2023-02-01T06:25:03;-1.10;99.90
35668;DHT22;22158;59.280;17.806;2023-02-01T06:27:29;-1.10;99.90
35668;DHT22;22158;59.280;17.806;2023-02-01T06:29:55;-1.10;99.90
35668;DHT22;22158;59.280;17.806;2023-02-01T06:32:21;-1.10;99.90
35668;DHT22;22158;59.280;17.806;2023-02-01T06:34:48;-1.10;99.90
35668;DHT22;22158;59.280;17.806;2023-02-01T06:37:13;-1.10;99.90
35668;DHT22;22158;59.280;17.806;2023-02-01T06:39:39;-1.00;99.90
35668;DHT22;22158;59.280;17.806;2023-02-01T06:42:07;-1.00;99.90
35668;DHT22;22158;59.280;17.806;2023-02-01T06:44:33;-1.00;99.90
35668;DHT22;22158;59.280;17.806;2023-02-01T06:46:58;-1.00;99.90
35668;DHT22;22158;59.280;17.806;2023-02-01T06:49:24;-1.00;99.90
35668;DHT22;22158;59.280;17.806;2023-02-01T06:51:50;-1.00;99.90
35668;DHT22;22158;59.280;17.806;2023-02-01T06:54:15;-1.00;99.90
35668;DHT22;22158;59.280;17.806;2023-02-01T06:56:41;-1.00;99.90
35668;DHT22;22158;59.280;17.806;2023-02-01T06:59:07;-1.00;99.90
35668;DHT22;22158;59.280;17.806;2023-02-01T07:01:33;-1.00;99.90
35668;DHT22;22158;59.280;17.806;2023-02-01T07:04:02;-1.00;99.90
35668;DHT22;22158;59.280;17.806;2023-02-01T07:06:27;-1.00;99.90
35668;DHT22;22158;59.280;17.806;2023-02-01T07:08:53;-1.00;99.90
35668;DHT22;22158;59.280;17.806;2023-02-01T07:11:21;-1.00;99.90
35668;DHT22;22158;59.280;17.806;2023-02-01T07:13:47;-1.10;99.90
35668;DHT22;22158;59.280;17.806;2023-02-01T07:16:18;-1.10;99.90
35668;DHT22;22158;59.280;17.806;2023-02-01T07:18:44;-1.10;99.90
35668;DHT22;22158;59.280;17.806;2023-02-01T07:21:09;-1.10;99.90
35668;DHT22;22158;59.280;17.806;2023-02-01T07:23:35;-1.10;99.90
35668;DHT22;22158;59.280;17.806;2023-02-01T07:26:03;-1.10;99.90
35668;DHT22;22158;59.280;17.806;2023-02-01T07:28:31;-1.10;99.90
35668;DHT22;22158;59.280;17.806;2023-02-01T07:31:17;-1.00;99.90
35668;DHT22;22158;59.280;17.806;2023-02-01T07:33:44;-1.00;99.90
35668;DHT22;22158;59.280;17.806;2023-02-01T07:36:15;-1.00;99.90
35668;DHT22;22158;59.280;17.806;2023-02-01T07:38:41;-1.00;99.90
35668;DHT22;22158;59.280;17.806;2023-02-01T07:41:08;-1.00;99.90
35668;DHT22;22158;59.280;17.806;2023-02-01T07:43:34;-1.00;99.90
35668;DHT22;22158;59.280;17.806;2023-02-01T07:46:02;-1.00;99.90
35668;DHT22;22158;59.280;17.806;2023-02-01T07:48:28;-0.90;99.90
35668;DHT22;22158;59.280;17.806;2023-02-01T07:50:58;-0.90;99.90
35668;DHT22;22158;59.280;17.806;2023-02-01T07:53:25;-0.90;99.90
35668;DHT22;22158;59.280;17.806;2023-02-01T07:55:50;-0.90;99.90
35668;DHT22;22158;59.280;17.806;2023-02-01T07:58:16;-0.90;99.90
35668;DHT22;22158;59.280;17.806;2023-02-01T08:00:42;-0.90;99.90
35668;DHT22;22158;59.280;17.806;2023-02-01T08:03:26;-0.80;99.90
35668;DHT22;22158;59.280;17.806;2023-02-01T08:05:55;-0.80;99.90
35668;DHT22;22158;59.280;17.806;2023-02-01T08:08:21;-0.70;99.90
35668;DHT22;22158;59.280;17.806;2023-02-01T08:10:49;-0.70;99.90
35668;DHT22;22158;59.280;17.806;2023-02-01T08:13:16;-0.70;99.90
35668;DHT22;22158;59.280;17.806;2023-02-01T08:15:42;-0.70;99.90
35668;DHT22;22158;59.280;17.806;2023-02-01T08:18:07;-0.60;99.90
35668;DHT22;22158;59.280;17.806;2023-02-01T08:20:35;-0.60;99.90
35668;DHT22;22158;59.280;17.806;2023-02-01T08:23:02;-0.60;99.90
35668;DHT22;22158;59.280;17.806;2023-02-01T08:25:28;-0.60;99.90
35668;DHT22;22158;59.280;17.806;2023-02-01T08:27:54;-0.60;99.90
35668;DHT22;22158;59.280;17.806;2023-02-01T08:30:20;-0.50;99.90
35668;DHT22;22158;59.280;17.806;2023-02-01T08:32:47;-0.50;99.90
35668;DHT22;22158;59.280;17.806;2023-02-01T08:35:13;-0.50;99.90
35668;DHT22;22158;59.280;17.806;2023-02-01T08:37:39;-0.50;99.90
35668;DHT22;22158;59.280;17.806;2023-02-01T08:40:05;-0.50;99.90
35668;DHT22;22158;59.280;17.806;2023-02-01T08:42:31;-0.50;99.90
35668;DHT22;22158;59.280;17.806;2023-02-01T08:45:15;-0.50;99.90
35668;DHT22;22158;59.280;17.806;2023-02-01T08:47:41;-0.50;99.90
35668;DHT22;22158;59.280;17.806;2023-02-01T08:50:07;-0.50;99.90
35668;DHT22;22158;59.280;17.806;2023-02-01T08:52:34;-0.50;99.90
35668;DHT22;22158;59.280;17.806;2023-02-01T08:54:59;-0.50;99.90
35668;DHT22;22158;59.280;17.806;2023-02-01T08:57:25;-0.50;99.90
35668;DHT22;22158;59.280;17.806;2023-02-01T08:59:51;-0.50;99.90
35668;DHT22;22158;59.280;17.806;2023-02-01T09:02:17;-0.40;99.90
35668;DHT22;22158;59.280;17.806;2023-02-01T09:04:43;-0.30;99.90
35668;DHT22;22158;59.280;17.806;2023-02-01T09:07:10;-0.30;99.90
35668;DHT22;22158;59.280;17.806;2023-02-01T09:09:37;-0.20;99.90
35668;DHT22;22158;59.280;17.806;2023-02-01T09:12:04;-0.20;99.90
35668;DHT22;22158;59.280;17.806;2023-02-01T09:14:30;-0.20;99.90
35668;DHT22;22158;59.280;17.806;2023-02-01T09:16:55;-0.10;99.90
35668;DHT22;22158;59.280;17.806;2023-02-01T09:19:21;-0.20;99.90
35668;DHT22;22158;59.280;17.806;2023-02-01T09:21:47;-0.20;99.90
35668;DHT22;22158;59.280;17.806;2023-02-01T09:24:13;-0.20;99.90
35668;DHT22;22158;59.280;17.806;2023-02-01T09:26:39;-0.20;99.90
35668;DHT22;22158;59.280;17.806;2023-02-01T09:29:05;-0.20;99.90
35668;DHT22;22158;59.280;17.806;2023-02-01T09:31:35;-0.20;99.90
35668;DHT22;22158;59.280;17.806;2023-02-01T09:34:01;-0.20;99.90
35668;DHT22;22158;59.280;17.806;2023-02-01T09:36:27;-0.10;99.90
35668;DHT22;22158;59.280;17.806;2023-02-01T09:38:53;-0.10;99.90
35668;DHT22;22158;59.280;17.806;2023-02-01T09:42:07;0.00;99.90
35668;DHT22;22158;59.280;17.806;2023-02-01T09:47:24;0.10;99.90
35668;DHT22;22158;59.280;17.806;2023-02-01T09:50:01;0.20;99.90
35668;DHT22;22158;59.280;17.806;2023-02-01T09:52:33;0.20;99.90
35668;DHT22;22158;59.280;17.806;2023-02-01T09:55:16;0.30;99.90
35668;DHT22;22158;59.280;17.806;2023-02-01T09:57:51;0.30;99.90
35668;DHT22;22158;59.280;17.806;2023-02-01T10:00:30;0.30;99.90
35668;DHT22;22158;59.280;17.806;2023-02-01T10:02:59;0.40;99.90
35668;DHT22;22158;59.280;17.806;2023-02-01T10:17:42;0.50;99.90
35668;DHT22;22158;59.280;17.806;2023-02-01T10:20:36;0.60;99.90
35668;DHT22;22158;59.280;17.806;2023-02-01T10:26:23;0.70;99.90
35668;DHT22;22158;59.280;17.806;2023-02-01T10:29:00;0.70;99.90
35668;DHT22;22158;59.280;17.806;2023-02-01T10:31:31;0.60;99.90
35668;DHT22;22158;59.280;17.806;2023-02-01T10:34:01;0.60;99.90
35668;DHT22;22158;59.280;17.806;2023-02-01T10:36:49;0.60;99.90
35668;DHT22;22158;59.280;17.806;2023-02-01T10:39:15;0.70;99.90
35668;DHT22;22158;59.280;17.806;2023-02-01T10:41:41;0.70;99.90
35668;DHT22;22158;59.280;17.806;2023-02-01T10:44:14;0.70;99.90
35668;DHT22;22158;59.280;17.806;2023-02-01T10:46:40;0.80;99.90
35668;DHT22;22158;59.280;17.806;2023-02-01T10:49:17;0.80;99.90
35668;DHT22;22158;59.280;17.806;2023-02-01T10:51:57;0.80;99.90
35668;DHT22;22158;59.280;17.806;2023-02-01T10:54:36;0.80;99.90
35668;DHT22;22158;59.280;17.806;2023-02-01T10:57:07;0.80;99.90
35668;DHT22;22158;59.280;17.806;2023-02-01T10:59:33;0.80;99.90
35668;DHT22;22158;59.280;17.806;2023-02-01T11:02:14;0.80;99.90
35668;DHT22;22158;59.280;17.806;2023-02-01T11:04:41;0.80;99.90
35668;DHT22;22158;59.280;17.806;2023-02-01T11:07:19;0.80;99.90
35668;DHT22;22158;59.280;17.806;2023-02-01T11:09:50;0.80;99.90
35668;DHT22;22158;59.280;17.806;2023-02-01T11:12:32;0.80;99.90
35668;DHT22;22158;59.280;17.806;2023-02-01T11:17:40;0.90;99.90
35668;DHT22;22158;59.280;17.806;2023-02-01T11:20:17;0.90;99.90
35668;DHT22;22158;59.280;17.806;2023-02-01T11:23:02;0.90;99.90
35668;DHT22;22158;59.280;17.806;2023-02-01T11:25:28;1.00;99.90
35668;DHT22;22158;59.280;17.806;2023-02-01T11:27:55;0.90;99.90
35668;DHT22;22158;59.280;17.806;2023-02-01T11:30:42;0.90;99.90
35668;DHT22;22158;59.280;17.806;2023-02-01T11:33:16;0.90;99.90
35668;DHT22;22158;59.280;17.806;2023-02-01T11:35:42;0.90;99.90
35668;DHT22;22158;59.280;17.806;2023-02-01T11:38:30;0.90;99.90
35668;DHT22;22158;59.280;17.806;2023-02-01T11:41:23;0.90;99.90
35668;DHT22;22158;59.280;17.806;2023-02-01T11:43:55;0.80;99.90
35668;DHT22;22158;59.280;17.806;2023-02-01T11:46:24;0.80;99.90
35668;DHT22;22158;59.280;17.806;2023-02-01T11:48:53;0.80;99.90
35668;DHT22;22158;59.280;17.806;2023-02-01T11:51:41;0.80;99.90
35668;DHT22;22158;59.280;17.806;2023-02-01T12:00:26;0.90;99.90
35668;DHT22;22158;59.280;17.806;2023-02-01T12:09:17;1.00;99.90
35668;DHT22;22158;59.280;17.806;2023-02-01T12:12:21;1.00;99.90
35668;DHT22;22158;59.280;17.806;2023-02-01T12:23:31;0.90;99.90
35668;DHT22;22158;59.280;17.806;2023-02-01T12:40:30;0.90;99.90
35668;DHT22;22158;59.280;17.806;2023-02-01T12:43:25;0.90;99.90
35668;DHT22;22158;59.280;17.806;2023-02-01T12:51:33;1.10;99.90
35668;DHT22;22158;59.280;17.806;2023-02-01T12:54:09;1.20;99.90
35668;DHT22;22158;59.280;17.806;2023-02-01T12:59:21;1.30;99.90
35668;DHT22;22158;59.280;17.806;2023-02-01T13:01:59;1.30;99.90
35668;DHT22;22158;59.280;17.806;2023-02-01T13:04:29;1.30;99.90
35668;DHT22;22158;59.280;17.806;2023-02-01T13:07:37;1.30;99.90
35668;DHT22;22158;59.280;17.806;2023-02-01T13:10:54;1.20;99.90
35668;DHT22;22158;59.280;17.806;2023-02-01T13:12:59;1.10;99.90
35668;DHT22;22158;59.280;17.806;2023-02-01T13:15:40;1.10;99.90
35668;DHT22;22158;59.280;17.806;2023-02-01T13:18:18;1.00;99.90
35668;DHT22;22158;59.280;17.806;2023-02-01T13:20:58;0.90;99.90
35668;DHT22;22158;59.280;17.806;2023-02-01T13:23:33;0.80;99.90
35668;DHT22;22158;59.280;17.806;2023-02-01T13:25:59;0.80;99.90
35668;DHT22;22158;59.280;17.806;2023-02-01T13:28:42;0.80;99.90
35668;DHT22;22158;59.280;17.806;2023-02-01T13:42:28;0.60;99.90
35668;DHT22;22158;59.280;17.806;2023-02-01T13:44:38;0.60;99.90
35668;DHT22;22158;59.280;17.806;2023-02-01T13:47:22;0.70;99.90
35668;DHT22;22158;59.280;17.806;2023-02-01T13:49:49;0.70;99.90
35668;DHT22;22158;59.280;17.806;2023-02-01T13:52:42;0.70;99.90
35668;DHT22;22158;59.280;17.806;2023-02-01T13:57:52;0.60;99.90
35668;DHT22;22158;59.280;17.806;2023-02-01T14:00:32;0.60;99.90
35668;DHT22;22158;59.280;17.806;2023-02-01T14:10:59;0.60;99.90
35668;DHT22;22158;59.280;17.806;2023-02-01T14:13:39;0.60;99.90
35668;DHT22;22158;59.280;17.806;2023-02-01T14:23:48;0.40;99.90
35668;DHT22;22158;59.280;17.806;2023-02-01T14:26:24;0.40;99.90
35668;DHT22;22158;59.280;17.806;2023-02-01T14:33:58;0.40;99.90
35668;DHT22;22158;59.280;17.806;2023-02-01T14:36:43;0.30;99.90
35668;DHT22;22158;59.280;17.806;2023-02-01T14:39:46;0.30;99.90
35668;DHT22;22158;59.280;17.806;2023-02-01T14:42:21;0.30;99.90
35668;DHT22;22158;59.280;17.806;2023-02-01T14:44:47;0.20;99.90
35668;DHT22;22158;59.280;17.806;2023-02-01T14:52:49;0.20;99.90
35668;DHT22;22158;59.280;17.806;2023-02-01T14:55:25;0.20;99.90
35668;DHT22;22158;59.280;17.806;2023-02-01T14:57:55;0.20;99.90
35668;DHT22;22158;59.280;17.806;2023-02-01T15:00:28;0.20;99.90
35668;DHT22;22158;59.280;17.806;2023-02-01T15:03:12;0.30;99.90
35668;DHT22;22158;59.280;17.806;2023-02-01T15:05:41;0.20;99.90
35668;DHT22;22158;59.280;17.806;2023-02-01T15:08:18;0.20;99.90
35668;DHT22;22158;59.280;17.806;2023-02-01T15:10:48;0.10;99.90
35668;DHT22;22158;59.280;17.806;2023-02-01T15:13:28;0.10;99.90
35668;DHT22;22158;59.280;17.806;2023-02-01T15:18:30;0.10;99.90
35668;DHT22;22158;59.280;17.806;2023-02-01T15:20:58;0.00;99.90
35668;DHT22;22158;59.280;17.806;2023-02-01T15:23:24;0.00;99.90
35668;DHT22;22158;59.280;17.806;2023-02-01T15:25:50;0.00;99.90
35668;DHT22;22158;59.280;17.806;2023-02-01T15:28:18;0.00;99.90
35668;DHT22;22158;59.280;17.806;2023-02-01T15:30:59;-0.10;99.90
35668;DHT22;22158;59.280;17.806;2023-02-01T15:33:26;-0.10;99.90
35668;DHT22;22158;59.280;17.806;2023-02-01T15:36:17;-0.10;99.90
35668;DHT22;22158;59.280;17.806;2023-02-01T15:38:43;-0.20;99.90
35668;DHT22;22158;59.280;17.806;2023-02-01T15:41:21;-0.20;99.90
35668;DHT22;22158;59.280;17.806;2023-02-01T15:46:30;-0.30;99.90
35668;DHT22;22158;59.280;17.806;2023-02-01T15:48:57;-0.30;99.90
35668;DHT22;22158;59.280;17.806;2023-02-01T15:51:31;-0.30;99.90
35668;DHT22;22158;59.280;17.806;2023-02-01T15:54:05;-0.30;99.90
35668;DHT22;22158;59.280;17.806;2023-02-01T15:56:37;-0.40;99.90
35668;DHT22;22158;59.280;17.806;2023-02-01T15:59:06;-0.30;99.90
35668;DHT22;22158;59.280;17.806;2023-02-01T16:01:38;-0.40;99.90
35668;DHT22;22158;59.280;17.806;2023-02-01T16:04:25;-0.40;99.90
35668;DHT22;22158;59.280;17.806;2023-02-01T16:06:53;-0.40;99.90
35668;DHT22;22158;59.280;17.806;2023-02-01T16:09:24;-0.40;99.90
35668;DHT22;22158;59.280;17.806;2023-02-01T16:11:56;-0.50;99.90
35668;DHT22;22158;59.280;17.806;2023-02-01T16:14:24;-0.50;99.90
35668;DHT22;22158;59.280;17.806;2023-02-01T16:16:50;-0.50;99.90
35668;DHT22;22158;59.280;17.806;2023-02-01T16:19:16;-0.50;99.90
35668;DHT22;22158;59.280;17.806;2023-02-01T16:21:42;-0.50;99.90
35668;DHT22;22158;59.280;17.806;2023-02-01T16:24:07;-0.50;99.90
35668;DHT22;22158;59.280;17.806;2023-02-01T16:26:33;-0.50;99.90
35668;DHT22;22158;59.280;17.806;2023-02-01T16:29:00;-0.50;99.90
35668;DHT22;22158;59.280;17.806;2023-02-01T16:31:30;-0.50;99.90
35668;DHT22;22158;59.280;17.806;2023-02-01T16:33:57;-0.50;99.90
35668;DHT22;22158;59.280;17.806;2023-02-01T16:36:24;-0.50;99.90
35668;DHT22;22158;59.280;17.806;2023-02-01T16:38:49;-0.50;99.90
35668;DHT22;22158;59.280;17.806;2023-02-01T16:41:17;-0.50;99.90
35668;DHT22;22158;59.280;17.806;2023-02-01T16:43:44;-0.50;99.90
35668;DHT22;22158;59.280;17.806;2023-02-01T16:46:15;-0.50;99.90
35668;DHT22;22158;59.280;17.806;2023-02-01T16:48:42;-0.50;99.90
35668;DHT22;22158;59.280;17.806;2023-02-01T16:51:13;-0.50;99.90
35668;DHT22;22158;59.280;17.806;2023-02-01T16:53:39;-0.50;99.90
35668;DHT22;22158;59.280;17.806;2023-02-01T16:56:22;-0.50;99.90
35668;DHT22;22158;59.280;17.806;2023-02-01T16:58:48;-0.50;99.90
35668;DHT22;22158;59.280;17.806;2023-02-01T17:01:16;-0.50;99.90
35668;DHT22;22158;59.280;17.806;2023-02-01T17:03:42;-0.50;99.90
35668;DHT22;22158;59.280;17.806;2023-02-01T17:06:16;-0.50;99.90
35668;DHT22;22158;59.280;17.806;2023-02-01T17:08:45;-0.40;99.90
35668;DHT22;22158;59.280;17.806;2023-02-01T17:11:12;-0.50;99.90
35668;DHT22;22158;59.280;17.806;2023-02-01T17:13:39;-0.50;99.90
35668;DHT22;22158;59.280;17.806;2023-02-01T17:18:47;-0.50;99.90
35668;DHT22;22158;59.280;17.806;2023-02-01T17:21:14;-0.50;99.90
35668;DHT22;22158;59.280;17.806;2023-02-01T17:23:40;-0.50;99.90
35668;DHT22;22158;59.280;17.806;2023-02-01T17:26:09;-0.50;99.90
35668;DHT22;22158;59.280;17.806;2023-02-01T17:28:35;-0.50;99.90
35668;DHT22;22158;59.280;17.806;2023-02-01T17:31:01;-0.50;99.90
35668;DHT22;22158;59.280;17.806;2023-02-01T17:33:35;-0.50;99.90
35668;DHT22;22158;59.280;17.806;2023-02-01T17:36:03;-0.50;99.90
35668;DHT22;22158;59.280;17.806;2023-02-01T17:38:29;-0.50;99.90
35668;DHT22;22158;59.280;17.806;2023-02-01T17:40:54;-0.60;99.90
35668;DHT22;22158;59.280;17.806;2023-02-01T17:43:24;-0.60;99.90
35668;DHT22;22158;59.280;17.806;2023-02-01T17:48:22;-0.70;99.90
35668;DHT22;22158;59.280;17.806;2023-02-01T17:50:49;-0.70;99.90
35668;DHT22;22158;59.280;17.806;2023-02-01T17:53:19;-0.70;99.90
35668;DHT22;22158;59.280;17.806;2023-02-01T17:55:49;-0.70;99.90
35668;DHT22;22158;59.280;17.806;2023-02-01T17:58:16;-0.70;99.90
35668;DHT22;22158;59.280;17.806;2023-02-01T18:00:43;-0.70;99.90
35668;DHT22;22158;59.280;17.806;2023-02-01T18:03:20;-0.70;99.90
35668;DHT22;22158;59.280;17.806;2023-02-01T18:05:47;-0.70;99.90
35668;DHT22;22158;59.280;17.806;2023-02-01T18:08:16;-0.70;99.90
35668;DHT22;22158;59.280;17.806;2023-02-01T18:10:43;-0.70;99.90
35668;DHT22;22158;59.280;17.806;2023-02-01T18:13:10;-0.80;99.90
35668;DHT22;22158;59.280;17.806;2023-02-01T18:15:37;-0.80;99.90
35668;DHT22;22158;59.280;17.806;2023-02-01T18:18:04;-0.80;99.90
35668;DHT22;22158;59.280;17.806;2023-02-01T18:20:30;-0.80;99.90
35668;DHT22;22158;59.280;17.806;2023-02-01T18:22:56;-0.80;99.90
35668;DHT22;22158;59.280;17.806;2023-02-01T18:27:50;-0.80;99.90
35668;DHT22;22158;59.280;17.806;2023-02-01T18:30:21;-0.80;99.90
35668;DHT22;22158;59.280;17.806;2023-02-01T18:32:47;-0.90;99.90
35668;DHT22;22158;59.280;17.806;2023-02-01T18:35:25;-0.90;99.90
35668;DHT22;22158;59.280;17.806;2023-02-01T18:37:52;-0.90;99.90
35668;DHT22;22158;59.280;17.806;2023-02-01T18:40:28;-0.90;99.90
35668;DHT22;22158;59.280;17.806;2023-02-01T18:42:55;-0.90;99.90
35668;DHT22;22158;59.280;17.806;2023-02-01T18:45:31;-0.90;99.90
35668;DHT22;22158;59.280;17.806;2023-02-01T18:47:58;-1.00;99.90
35668;DHT22;22158;59.280;17.806;2023-02-01T18:50:25;-0.90;99.90
35668;DHT22;22158;59.280;17.806;2023-02-01T18:52:59;-1.00;99.90
35668;DHT22;22158;59.280;17.806;2023-02-01T18:55:26;-1.00;99.90
35668;DHT22;22158;59.280;17.806;2023-02-01T18:57:52;-1.00;99.90
35668;DHT22;22158;59.280;17.806;2023-02-01T19:00:19;-1.10;99.90
35668;DHT22;22158;59.280;17.806;2023-02-01T19:02:46;-1.10;99.90
35668;DHT22;22158;59.280;17.806;2023-02-01T19:05:12;-1.10;99.90
35668;DHT22;22158;59.280;17.806;2023-02-01T19:07:39;-1.20;99.90
35668;DHT22;22158;59.280;17.806;2023-02-01T19:10:11;-1.20;99.90
35668;DHT22;22158;59.280;17.806;2023-02-01T19:12:37;-1.20;99.90
35668;DHT22;22158;59.280;17.806;2023-02-01T19:15:05;-1.20;99.90
35668;DHT22;22158;59.280;17.806;2023-02-01T19:17:31;-1.20;99.90
35668;DHT22;22158;59.280;17.806;2023-02-01T19:19:57;-1.20;99.90
35668;DHT22;22158;59.280;17.806;2023-02-01T19:22:24;-1.20;99.90
35668;DHT22;22158;59.280;17.806;2023-02-01T19:24:50;-1.20;99.90
35668;DHT22;22158;59.280;17.806;2023-02-01T19:27:16;-1.20;99.90
35668;DHT22;22158;59.280;17.806;2023-02-01T19:29:41;-1.20;99.90
35668;DHT22;22158;59.280;17.806;2023-02-01T19:32:11;-1.20;99.90
35668;DHT22;22158;59.280;17.806;2023-02-01T19:34:37;-1.20;99.90
35668;DHT22;22158;59.280;17.806;2023-02-01T19:37:07;-1.20;99.90
35668;DHT22;22158;59.280;17.806;2023-02-01T19:39:33;-1.10;99.90
35668;DHT22;22158;59.280;17.806;2023-02-01T19:41:59;-1.20;99.90
35668;DHT22;22158;59.280;17.806;2023-02-01T19:44:25;-1.20;99.90
35668;DHT22;22158;59.280;17.806;2023-02-01T19:46:55;-1.20;99.90
35668;DHT22;22158;59.280;17.806;2023-02-01T19:49:21;-1.20;99.90
35668;DHT22;22158;59.280;17.806;2023-02-01T19:51:46;-1.10;99.90
35668;DHT22;22158;59.280;17.806;2023-02-01T19:54:13;-1.20;99.90
35668;DHT22;22158;59.280;17.806;2023-02-01T19:56:39;-1.20;99.90
35668;DHT22;22158;59.280;17.806;2023-02-01T19:59:06;-1.20;99.90
35668;DHT22;22158;59.280;17.806;2023-02-01T20:01:33;-1.20;99.90
35668;DHT22;22158;59.280;17.806;2023-02-01T20:03:59;-1.20;99.90
35668;DHT22;22158;59.280;17.806;2023-02-01T20:06:33;-1.10;99.90
35668;DHT22;22158;59.280;17.806;2023-02-01T20:09:02;-1.10;99.90
35668;DHT22;22158;59.280;17.806;2023-02-01T20:11:28;-1.20;99.90
35668;DHT22;22158;59.280;17.806;2023-02-01T20:13:55;-1.20;99.90
35668;DHT22;22158;59.280;17.806;2023-02-01T20:16:22;-1.20;99.90
35668;DHT22;22158;59.280;17.806;2023-02-01T20:18:48;-1.10;99.90
35668;DHT22;22158;59.280;17.806;2023-02-01T20:21:15;-1.10;99.90
35668;DHT22;22158;59.280;17.806;2023-02-01T20:23:41;-1.10;99.90
35668;DHT22;22158;59.280;17.806;2023-02-01T20:26:09;-1.10;99.90
35668;DHT22;22158;59.280;17.806;2023-02-01T20:28:35;-1.10;99.90
35668;DHT22;22158;59.280;17.806;2023-02-01T20:31:02;-1.10;99.90
35668;DHT22;22158;59.280;17.806;2023-02-01T20:33:28;-1.10;99.90
35668;DHT22;22158;59.280;17.806;2023-02-01T20:35:55;-1.10;99.90
35668;DHT22;22158;59.280;17.806;2023-02-01T20:38:23;-1.10;99.90
35668;DHT22;22158;59.280;17.806;2023-02-01T20:40:48;-1.10;99.90
35668;DHT22;22158;59.280;17.806;2023-02-01T20:43:14;-1.10;99.90
35668;DHT22;22158;59.280;17.806;2023-02-01T20:45:41;-1.20;99.90
35668;DHT22;22158;59.280;17.806;2023-02-01T20:48:08;-1.10;99.90
35668;DHT22;22158;59.280;17.806;2023-02-01T20:50:34;-1.20;99.90
35668;DHT22;22158;59.280;17.806;2023-02-01T20:53:01;-1.10;99.90
35668;DHT22;22158;59.280;17.806;2023-02-01T20:55:27;-1.10;99.90
35668;DHT22;22158;59.280;17.806;2023-02-01T20:57:52;-1.10;99.90
35668;DHT22;22158;59.280;17.806;2023-02-01T21:00:19;-1.10;99.90
35668;DHT22;22158;59.280;17.806;2023-02-01T21:02:47;-1.10;99.90
35668;DHT22;22158;59.280;17.806;2023-02-01T21:05:13;-1.10;99.90
35668;DHT22;22158;59.280;17.806;2023-02-01T21:07:40;-1.00;99.90
35668;DHT22;22158;59.280;17.806;2023-02-01T21:10:06;-1.00;99.90
35668;DHT22;22158;59.280;17.806;2023-02-01T21:12:32;-1.00;99.90
35668;DHT22;22158;59.280;17.806;2023-02-01T21:14:58;-1.00;99.90
35668;DHT22;22158;59.280;17.806;2023-02-01T21:17:24;-1.00;99.90
35668;DHT22;22158;59.280;17.806;2023-02-01T21:19:53;-1.00;99.90
35668;DHT22;22158;59.280;17.806;2023-02-01T21:22:19;-1.00;99.90
35668;DHT22;22158;59.280;17.806;2023-02-01T21:24:45;-1.00;99.90
35668;DHT22;22158;59.280;17.806;2023-02-01T21:27:11;-1.00;99.90
35668;DHT22;22158;59.280;17.806;2023-02-01T21:29:37;-1.00;99.90
35668;DHT22;22158;59.280;17.806;2023-02-01T21:32:03;-1.00;99.90
35668;DHT22;22158;59.280;17.806;2023-02-01T21:34:30;-1.00;99.90
35668;DHT22;22158;59.280;17.806;2023-02-01T21:36:55;-1.00;99.90
35668;DHT22;22158;59.280;17.806;2023-02-01T21:39:21;-1.00;99.90
35668;DHT22;22158;59.280;17.806;2023-02-01T21:41:47;-1.00;99.90
35668;DHT22;22158;59.280;17.806;2023-02-01T21:44:31;-1.00;99.90
35668;DHT22;22158;59.280;17.806;2023-02-01T21:46:56;-1.00;99.90
35668;DHT22;22158;59.280;17.806;2023-02-01T21:49:23;-0.90;99.90
35668;DHT22;22158;59.280;17.806;2023-02-01T21:51:53;-0.90;99.90
35668;DHT22;22158;59.280;17.806;2023-02-01T21:54:21;-0.90;99.90
35668;DHT22;22158;59.280;17.806;2023-02-01T21:56:47;-0.90;99.90
35668;DHT22;22158;59.280;17.806;2023-02-01T21:59:13;-0.90;99.90
35668;DHT22;22158;59.280;17.806;2023-02-01T22:01:39;-0.90;99.90
35668;DHT22;22158;59.280;17.806;2023-02-01T22:04:06;-0.90;99.90
35668;DHT22;22158;59.280;17.806;2023-02-01T22:06:34;-0.90;99.90
35668;DHT22;22158;59.280;17.806;2023-02-01T22:09:00;-0.90;99.90
35668;DHT22;22158;59.280;17.806;2023-02-01T22:11:26;-0.90;99.90
35668;DHT22;22158;59.280;17.806;2023-02-01T22:13:53;-0.90;99.90
35668;DHT22;22158;59.280;17.806;2023-02-01T22:16:19;-0.90;99.90
35668;DHT22;22158;59.280;17.806;2023-02-01T22:18:50;-0.90;99.90
35668;DHT22;22158;59.280;17.806;2023-02-01T22:21:17;-0.90;99.90
35668;DHT22;22158;59.280;17.806;2023-02-01T22:23:43;-0.90;99.90
35668;DHT22;22158;59.280;17.806;2023-02-01T22:26:11;-0.90;99.90
35668;DHT22;22158;59.280;17.806;2023-02-01T22:28:38;-0.90;99.90
35668;DHT22;22158;59.280;17.806;2023-02-01T22:31:06;-0.90;99.90
35668;DHT22;22158;59.280;17.806;2023-02-01T22:36:35;-0.90;99.90